Time;durP1;ratioP1;P1;durP2;ratioP2;P2;SDS_P1;SDS_P2;PMS_P1;PMS_P2;Temp;Humidity;BMP_temperature;BMP_pressure;BME280_temperature;BME280_humidity;BME280_pressure;Samples;Min_cycle;Max_cycle;Signal;HPM_P1;HPM_P2
2022/07/18 00:01:01;;;;;;;5.30;2.53;;;;;;;12.51;78.28;102234.97;10520616;28;20046;-75
2022/07/18 00:06:01;;;;;;;5.95;3.58;;;;;;;12.47;78.10;102234.78;10536858;28;20036;-75
2022/07/18 00:11:02;;;;;;;4.72;2.25;;;;;;;12.39;78.08;102238.66;10528094;28;20524;-74
2022/07/18 00:16:02;;;;;;;5.82;2.47;;;;;;;12.29;78.96;102233.66;10511347;28;20089;-75
2022/07/18 00:21:03;;;;;;;8.07;3.13;;;;;;;12.17;79.21;102232.06;10502659;28;20446;-75
2022/07/18 00:26:04;;;;;;;5.53;2.17;;;;;;;12.10;80.17;102231.56;10510787;28;20036;-75
2022/07/18 00:31:04;;;;;;;3.38;1.90;;;;;;;12.04;80.28;102221.59;10528720;28;20108;-75
2022/07/18 00:36:05;;;;;;;4.95;2.47;;;;;;;12.03;80.73;102222.41;10551755;28;20071;-75
2022/07/18 00:41:05;;;;;;;5.85;2.10;;;;;;;11.96;81.07;102218.44;10518789;28;20032;-75
2022/07/18 00:46:06;;;;;;;6.78;2.33;;;;;;;11.95;81.99;102215.75;10510798;28;20036;-75
2022/07/18 00:51:07;;;;;;;6.07;2.63;;;;;;;11.96;83.07;102209.69;10545341;28;20043;-75
2022/07/18 00:56:08;;;;;;;5.30;2.60;;;;;;;11.92;83.34;102203.31;10534668;28;20092;-75
2022/07/18 01:06:27;;;;;;;5.68;3.13;;;;;;;11.74;83.72;102203.06;10457465;28;20555;-75
2022/07/18 01:11:28;;;;;;;6.35;2.90;;;;;;;11.67;83.31;102211.34;10471359;28;20040;-75
2022/07/18 01:16:28;;;;;;;4.45;2.67;;;;;;;11.55;84.29;102211.44;10568810;28;20063;-75
2022/07/18 01:21:29;;;;;;;6.55;2.30;;;;;;;11.44;84.31;102203.78;10514611;28;20126;-75
2022/07/18 01:26:29;;;;;;;5.85;2.78;;;;;;;11.37;84.30;102206.81;10550644;28;20047;-75
2022/07/18 01:31:33;;;;;;;10.43;2.65;;;;;;;11.34;84.31;102200.47;10548769;28;20031;-75
2022/07/18 01:36:33;;;;;;;6.25;3.38;;;;;;;11.38;83.97;102197.25;10568700;28;20169;-75
2022/07/18 01:41:34;;;;;;;6.65;2.65;;;;;;;11.32;83.72;102197.72;10546081;28;20028;-75
2022/07/18 01:46:34;;;;;;;6.07;2.88;;;;;;;11.22;84.00;102190.06;10542402;28;20042;-75
2022/07/18 01:51:35;;;;;;;7.97;3.45;;;;;;;11.13;84.35;102187.75;10516658;28;20173;-75
2022/07/18 01:56:35;;;;;;;6.03;2.45;;;;;;;11.09;85.45;102180.50;10550375;28;20172;-75
2022/07/18 02:01:36;;;;;;;6.55;2.22;;;;;;;11.06;86.02;102175.06;10545199;28;20044;-75
2022/07/18 02:06:38;;;;;;;10.50;4.57;;;;;;;10.96;86.66;102169.19;10490815;28;20044;-75
2022/07/18 02:11:38;;;;;;;7.82;2.67;;;;;;;10.85;87.22;102168.47;10510581;28;20411;-75
2022/07/18 02:16:39;;;;;;;8.15;3.85;;;;;;;10.82;87.49;102180.47;10567216;28;20081;-75
2022/07/18 02:21:39;;;;;;;6.00;3.25;;;;;;;10.76;87.66;102170.47;10524976;28;20165;-75
2022/07/18 02:26:40;;;;;;;4.50;2.90;;;;;;;10.68;87.88;102185.66;10567427;28;20074;-74
2022/07/18 02:31:40;;;;;;;6.93;4.13;;;;;;;10.61;88.54;102174.66;10544500;28;20158;-75
2022/07/18 02:36:41;;;;;;;8.75;3.80;;;;;;;10.57;88.69;102174.44;10506805;28;20036;-75
2022/07/18 02:41:41;;;;;;;7.30;3.83;;;;;;;10.49;88.76;102170.41;10512729;28;20039;-75
2022/07/18 02:46:42;;;;;;;8.88;4.00;;;;;;;10.46;89.55;102167.56;10524171;28;20122;-75
2022/07/18 02:51:42;;;;;;;5.30;3.17;;;;;;;10.42;89.80;102165.53;10480173;28;20042;-74
2022/07/18 02:56:43;;;;;;;13.00;4.82;;;;;;;10.41;90.62;102155.88;10548597;28;20501;-75
2022/07/18 03:01:43;;;;;;;5.57;2.75;;;;;;;10.38;90.99;102146.09;10536736;28;20040;-75
2022/07/18 03:06:44;;;;;;;8.05;3.90;;;;;;;10.40;90.13;102143.59;10567277;28;20051;-74
2022/07/18 03:11:45;;;;;;;9.25;3.17;;;;;;;10.39;89.86;102146.97;10525824;28;20048;-74
2022/07/18 03:16:45;;;;;;;9.00;3.60;;;;;;;10.33;89.79;102155.31;10506589;28;20464;-75
2022/07/18 03:21:46;;;;;;;14.75;3.08;;;;;;;10.24;90.25;102158.19;10525011;28;20052;-75
2022/07/18 03:26:46;;;;;;;11.40;3.63;;;;;;;10.24;90.78;102150.34;10566011;28;20088;-75
2022/07/18 03:31:47;;;;;;;8.77;2.70;;;;;;;10.24;91.32;102152.97;10565531;28;20044;-74
2022/07/18 03:36:48;;;;;;;9.85;4.55;;;;;;;10.18;91.73;102142.06;10513216;28;20052;-75
2022/07/18 03:41:48;;;;;;;4.55;2.95;;;;;;;10.15;91.76;102139.22;10532781;28;20043;-75
2022/07/18 03:46:51;;;;;;;8.68;3.45;;;;;;;10.08;92.03;102139.59;10530962;28;20471;-74
2022/07/18 03:51:55;;;;;;;8.02;4.32;;;;;;;10.02;92.38;102132.25;10497931;28;20028;-74
2022/07/18 03:56:55;;;;;;;10.10;3.90;;;;;;;10.09;93.42;102137.13;10539236;28;20078;-75
2022/07/18 04:01:56;;;;;;;6.57;3.03;;;;;;;10.12;93.37;102129.47;10550147;28;20054;-74
2022/07/18 04:06:59;;;;;;;13.98;5.55;;;;;;;10.21;93.50;102130.91;10529214;28;20040;-74
2022/07/18 04:11:59;;;;;;;6.10;3.17;;;;;;;10.29;93.63;102135.88;10548132;28;20046;-73
2022/07/18 04:17:00;;;;;;;5.28;3.15;;;;;;;10.41;93.65;102137.56;10512214;28;20035;-74
2022/07/18 04:22:00;;;;;;;6.55;2.90;;;;;;;10.53;93.55;102142.72;10530393;28;20040;-74
2022/07/18 04:27:01;;;;;;;7.38;4.25;;;;;;;10.67;92.83;102130.56;10568648;28;20040;-74
2022/07/18 04:32:01;;;;;;;9.68;4.72;;;;;;;10.78;92.24;102132.19;10537034;28;20032;-74
2022/07/18 04:37:02;;;;;;;9.48;3.90;;;;;;;10.92;91.48;102119.09;10511058;28;20043;-74
2022/07/18 04:42:03;;;;;;;8.02;3.30;;;;;;;11.28;91.55;102106.59;10517379;28;20032;-74
2022/07/18 04:47:03;;;;;;;6.75;2.92;;;;;;;11.67;90.64;102099.47;10528163;28;20475;-75
2022/07/18 04:52:04;;;;;;;4.85;2.80;;;;;;;11.82;87.83;102107.41;10523002;28;20122;-76
2022/07/18 04:57:04;;;;;;;5.07;2.65;;;;;;;11.82;86.93;102104.78;10494308;28;20511;-75
2022/07/18 05:02:05;;;;;;;6.38;3.25;;;;;;;11.92;85.72;102106.25;10491263;28;20109;-74
2022/07/18 05:07:06;;;;;;;8.35;3.47;;;;;;;11.97;85.85;102117.03;10513052;28;20081;-75
2022/07/18 05:12:06;;;;;;;6.65;3.42;;;;;;;12.11;86.26;102107.41;10484346;28;20043;-75
2022/07/18 05:17:08;;;;;;;5.63;2.80;;;;;;;12.43;86.60;102108.47;10500421;28;20118;-75
2022/07/18 05:22:09;;;;;;;5.43;2.53;;;;;;;13.06;86.46;102105.97;10499851;28;20043;-74
2022/07/18 05:27:09;;;;;;;13.60;3.47;;;;;;;14.03;82.99;102114.84;10520605;28;20127;-75
2022/07/18 05:32:11;;;;;;;4.80;2.38;;;;;;;15.29;75.18;102110.63;10514053;28;20040;-75
2022/07/18 05:37:11;;;;;;;3.73;2.23;;;;;;;15.67;72.61;102109.81;10491774;28;20055;-75
2022/07/18 05:42:12;;;;;;;7.80;2.70;;;;;;;16.58;71.26;102101.50;10513931;28;20039;-75
2022/07/18 05:47:13;;;;;;;8.05;2.38;;;;;;;17.30;69.74;102095.66;10525665;28;20071;-75
2022/07/18 05:52:13;;;;;;;7.30;3.13;;;;;;;17.88;68.35;102087.25;10532324;28;20425;-74
2022/07/18 05:57:14;;;;;;;5.20;2.63;;;;;;;18.53;67.19;102093.97;10548559;28;20042;-75
2022/07/18 06:02:15;;;;;;;6.70;2.67;;;;;;;18.48;65.24;102093.81;10516912;28;20104;-75
2022/07/18 06:07:15;;;;;;;3.83;2.10;;;;;;;18.45;66.54;102088.41;10535786;28;20024;-75
2022/07/18 06:12:16;;;;;;;5.20;3.27;;;;;;;19.42;65.48;102087.13;10490653;28;20127;-75
2022/07/18 06:17:16;;;;;;;5.50;3.27;;;;;;;20.39;62.15;102079.28;10501773;28;20040;-74
2022/07/18 06:22:17;;;;;;;11.03;3.63;;;;;;;21.32;60.01;102079.75;10471593;28;20087;-74
2022/07/18 06:27:18;;;;;;;4.50;2.83;;;;;;;22.43;56.64;102078.41;10499638;28;20044;-76
2022/07/18 06:32:18;;;;;;;8.67;3.27;;;;;;;22.39;56.05;102081.91;10531050;28;20036;-76
2022/07/18 06:37:19;;;;;;;14.13;5.37;;;;;;;23.40;53.87;102086.22;10515828;28;20048;-77
2022/07/18 06:42:19;;;;;;;32.30;3.27;;;;;;;24.91;51.71;102086.06;10514390;28;20043;-76
2022/07/18 06:47:20;;;;;;;24.97;11.73;;;;;;;26.17;45.61;102078.63;10500155;28;20046;-77
2022/07/18 06:52:20;;;;;;;9.77;3.72;;;;;;;26.42;44.61;102055.41;10543574;28;20055;-76
2022/07/18 06:57:20;;;;;;;;;;;;;;;27.16;46.31;102067.00;10545866;28;20509;-76
2022/07/18 07:02:21;;;;;;;8.00;4.10;;;;;;;27.80;37.59;102067.66;10564725;28;19923;-76
2022/07/18 07:07:21;;;;;;;;;;;;;;;28.35;38.90;102058.34;10532764;28;20126;-77
2022/07/18 07:12:22;;;;;;;8.57;2.50;;;;;;;28.98;40.81;102056.03;10573933;28;19928;-76
2022/07/18 07:17:22;;;;;;;6.85;2.97;;;;;;;28.62;40.41;102047.38;10554767;28;20067;-76
2022/07/18 07:22:23;;;;;;;6.25;2.70;;;;;;;29.69;31.33;102036.31;10554502;28;20118;-76
2022/07/18 07:27:23;;;;;;;7.35;3.10;;;;;;;29.31;33.96;102046.63;10518895;28;20044;-76
2022/07/18 07:32:24;;;;;;;7.45;3.08;;;;;;;29.18;33.36;102049.50;10529602;28;20135;-76
2022/07/18 07:37:24;;;;;;;8.80;4.28;;;;;;;29.54;31.96;102045.47;10518815;28;20098;-76
2022/07/18 07:42:25;;;;;;;7.95;2.97;;;;;;;29.90;34.97;102053.09;10510280;28;20032;-76
2022/07/18 07:47:26;;;;;;;7.82;2.72;;;;;;;30.63;34.10;102040.28;10546170;28;20505;-76
2022/07/18 07:52:28;;;;;;;5.65;2.78;;;;;;;31.80;29.90;102042.44;10529043;28;20054;-76
2022/07/18 07:57:28;;;;;;;8.35;2.53;;;;;;;32.17;28.19;102035.25;10510428;28;20487;-76
2022/07/18 08:02:29;;;;;;;9.90;3.10;;;;;;;33.12;26.15;102049.03;10530345;28;20113;-76
2022/07/18 08:07:29;;;;;;;6.15;2.47;;;;;;;33.06;28.70;102040.16;10528651;28;20076;-75
2022/07/18 08:12:30;;;;;;;9.48;2.63;;;;;;;32.61;30.21;102032.34;10511777;28;20036;-74
2022/07/18 08:17:31;;;;;;;9.40;2.53;;;;;;;32.61;28.23;102027.81;10491955;28;20053;-75
2022/07/18 08:22:31;;;;;;;11.57;2.70;;;;;;;33.08;26.61;102024.72;10499862;28;20101;-75
2022/07/18 08:27:32;;;;;;;8.85;2.85;;;;;;;33.54;26.19;102021.59;10525731;28;20451;-75
2022/07/18 08:32:33;;;;;;;6.63;2.33;;;;;;;33.78;25.70;102016.31;10541699;28;20510;-75
2022/07/18 08:37:33;;;;;;;5.95;2.10;;;;;;;33.97;27.51;102012.09;10514065;28;20036;-77
2022/07/18 08:42:34;;;;;;;12.02;9.80;;;;;;;35.05;23.04;102001.13;10498583;28;20123;-77
2022/07/18 08:47:35;;;;;;;6.10;2.50;;;;;;;35.49;22.95;101994.94;10507211;28;20102;-77
2022/07/18 08:52:37;;;;;;;9.15;4.45;;;;;;;34.80;23.98;102001.13;10500333;28;20035;-77
2022/07/18 08:57:37;;;;;;;6.85;2.63;;;;;;;35.11;24.13;102009.03;10517782;28;20136;-77
2022/07/18 09:02:38;;;;;;;4.25;2.55;;;;;;;35.08;23.89;102009.16;10526090;28;20170;-77
2022/07/18 09:07:39;;;;;;;7.38;2.35;;;;;;;35.13;22.86;102030.75;10539427;28;20181;-76
2022/07/18 09:12:39;;;;;;;5.60;3.05;;;;;;;35.61;20.73;102022.59;10524871;28;20032;-77
2022/07/18 09:17:40;;;;;;;7.43;2.97;;;;;;;36.77;21.04;102025.03;10470056;28;20040;-78
2022/07/18 09:22:49;;;;;;;6.50;2.42;;;;;;;36.49;24.02;102023.53;10491182;28;20492;-75
2022/07/18 09:27:51;;;;;;;5.63;2.70;;;;;;;36.50;22.08;102019.84;10522167;28;20404;-76
2022/07/18 09:33:07;;;;;;;9.63;2.28;;;;;;;36.15;22.93;102014.94;10530660;28;20047;-75
2022/07/18 09:38:09;;;;;;;5.25;1.85;;;;;;;36.21;22.50;102016.53;10535161;28;20492;-75
2022/07/18 09:43:15;;;;;;;6.45;2.30;;;;;;;36.58;23.19;102010.38;10557091;28;20192;-77
2022/07/18 09:48:21;;;;;;;5.75;2.40;;;;;;;36.39;23.74;102009.38;10539447;28;20048;-76
2022/07/18 09:53:26;;;;;;;12.27;2.45;;;;;;;36.28;23.83;102008.00;10516149;28;20051;-76
2022/07/18 09:58:31;;;;;;;6.63;3.38;;;;;;;36.79;23.19;102004.03;10518173;28;20043;-76
2022/07/18 10:03:32;;;;;;;9.98;2.55;;;;;;;36.37;22.46;102000.38;10529231;28;20032;-76
2022/07/18 10:08:33;;;;;;;5.47;3.15;;;;;;;35.84;21.74;102008.94;10541564;28;20054;-74
2022/07/18 10:13:35;;;;;;;4.75;2.75;;;;;;;36.08;22.76;102005.25;10539199;27;20035;-76
2022/07/18 10:18:38;;;;;;;6.63;2.58;;;;;;;36.86;21.86;101995.47;10525042;27;20399;-76
2022/07/18 10:23:39;;;;;;;7.20;3.22;;;;;;;37.60;21.53;101993.88;10490965;28;20094;-76
2022/07/18 10:28:54;;;;;;;7.30;3.92;;;;;;;38.17;20.63;101991.97;10532181;28;20044;-75
2022/07/18 10:34:15;;;;;;;8.85;3.38;;;;;;;37.99;22.56;101993.81;10567074;28;20051;-77
2022/07/18 10:39:24;;;;;;;7.63;3.28;;;;;;;38.34;20.79;101985.63;10526257;28;20445;-76
2022/07/18 10:44:25;;;;;;;6.00;3.78;;;;;;;38.38;19.49;101989.06;10515281;28;20032;-76
2022/07/18 10:49:48;;;;;;;4.85;2.60;;;;;;;38.32;18.49;101987.56;10552835;28;20047;-76
2022/07/18 11:00:16;;;;;;;6.70;2.83;;;;;;;37.89;20.80;101972.41;10536816;27;20047;-75
2022/07/18 11:05:23;;;;;;;9.27;2.20;;;;;;;38.22;19.64;101978.94;10531585;28;20032;-76
2022/07/18 11:10:50;;;;;;;8.85;2.35;;;;;;;38.38;18.33;101976.31;10530089;28;20028;-75
2022/07/18 11:16:09;;;;;;;3.63;2.10;;;;;;;38.23;20.67;101967.03;10529645;28;20040;-75
2022/07/18 11:21:19;;;;;;;5.33;2.30;;;;;;;38.60;19.43;101961.50;10530378;28;20063;-74
2022/07/18 11:26:21;;;;;;;6.45;2.95;;;;;;;38.00;18.58;101960.94;10531123;28;20618;-75
2022/07/18 11:31:22;;;;;;;7.65;2.80;;;;;;;37.86;18.14;101955.28;10527113;28;20040;-76
2022/07/18 11:36:27;;;;;;;6.47;4.57;;;;;;;38.61;18.52;101942.25;10502253;28;20031;-76
2022/07/18 11:41:28;;;;;;;4.03;2.30;;;;;;;38.25;20.21;101940.53;10506403;28;20036;-76
2022/07/18 11:46:29;;;;;;;2.22;1.40;;;;;;;38.54;18.50;101940.84;10510293;28;20036;-76
2022/07/18 11:51:35;;;;;;;13.98;9.32;;;;;;;38.56;21.36;101938.91;10536300;28;20531;-75
2022/07/18 11:56:49;;;;;;;5.38;2.33;;;;;;;38.39;18.94;101936.16;10503216;28;20130;-75
2022/07/18 12:01:52;;;;;;;6.75;2.15;;;;;;;38.97;19.17;101912.09;10523096;28;20484;-75
2022/07/18 12:07:29;;;;;;;7.90;1.88;;;;;;;38.19;21.00;101929.91;10453691;28;20119;-75
2022/07/18 12:12:30;;;;;;;7.28;1.92;;;;;;;37.91;20.54;101923.13;10469540;28;20047;-75
2022/07/18 12:17:30;;;;;;;9.52;1.95;;;;;;;38.85;18.93;101909.03;10456805;28;20520;-76
2022/07/18 12:22:31;;;;;;;11.43;8.05;;;;;;;38.84;18.98;101920.97;10470699;28;20557;-76
2022/07/18 12:27:31;;;;;;;3.88;1.95;;;;;;;38.96;19.97;101907.59;10475734;28;20127;-75
2022/07/18 12:32:46;;;;;;;5.32;2.00;;;;;;;38.80;19.57;101918.50;10487422;28;20029;-75
2022/07/18 12:37:53;;;;;;;13.18;10.57;;;;;;;39.59;17.74;101900.31;10454332;28;20484;-76
2022/07/18 12:43:10;;;;;;;5.57;2.67;;;;;;;39.44;19.28;101894.78;10504173;28;20496;-76
2022/07/18 12:48:11;;;;;;;4.82;2.97;;;;;;;39.17;20.59;101886.31;10459446;28;20039;-76
2022/07/18 12:53:12;;;;;;;7.78;4.15;;;;;;;39.83;19.53;101887.06;10452704;28;20039;-77
2022/07/18 12:58:13;;;;;;;5.10;1.83;;;;;;;38.41;18.30;101882.31;10490322;28;20119;-77
2022/07/18 13:03:14;;;;;;;3.38;1.70;;;;;;;36.87;20.10;101873.66;10495731;28;20119;-77
2022/07/18 13:08:15;;;;;;;4.68;1.65;;;;;;;36.53;22.18;101867.06;10513984;28;20036;-75
2022/07/18 13:13:15;;;;;;;2.90;1.65;;;;;;;37.40;19.39;101863.78;10476776;28;20760;-75
2022/07/18 13:18:16;;;;;;;4.35;1.70;;;;;;;38.13;19.39;101867.41;10478501;28;20143;-76
2022/07/18 13:23:16;;;;;;;3.03;1.42;;;;;;;38.77;16.97;101862.09;10508351;28;20032;-76
2022/07/18 13:28:17;;;;;;;5.60;3.67;;;;;;;38.81;17.59;101857.34;10516573;28;20387;-76
2022/07/18 13:33:17;;;;;;;6.63;1.80;;;;;;;39.05;17.35;101857.81;10502350;28;20119;-76
2022/07/18 13:38:18;;;;;;;3.97;1.85;;;;;;;39.03;19.11;101846.97;10507735;28;20059;-76
2022/07/18 13:43:19;;;;;;;6.82;2.08;;;;;;;39.26;18.43;101843.84;10507395;28;20036;-76
2022/07/18 13:48:19;;;;;;;2.45;1.70;;;;;;;39.16;17.58;101846.25;10505498;28;20048;-76
2022/07/18 13:53:20;;;;;;;4.05;1.63;;;;;;;39.51;18.10;101843.28;10499567;28;20032;-76
2022/07/18 13:58:20;;;;;;;4.93;2.85;;;;;;;38.97;19.87;101838.22;10506608;28;20082;-76
2022/07/18 14:03:21;;;;;;;2.78;1.67;;;;;;;38.31;17.87;101841.78;10550704;28;20043;-76
2022/07/18 14:08:21;;;;;;;4.30;1.73;;;;;;;38.18;18.26;101829.78;10551045;28;20036;-75
2022/07/18 14:13:22;;;;;;;4.60;1.27;;;;;;;38.20;19.90;101830.56;10554262;28;20051;-76
2022/07/18 14:18:22;;;;;;;2.25;1.17;;;;;;;38.07;21.30;101824.91;10545135;28;22028;-77
2022/07/18 14:23:23;;;;;;;4.03;1.48;;;;;;;38.40;18.27;101818.56;10524798;28;20101;-78
2022/07/18 14:28:23;;;;;;;20.35;17.85;;;;;;;38.52;17.84;101821.59;10532353;28;20074;-76
2022/07/18 14:33:24;;;;;;;3.83;2.22;;;;;;;38.45;18.63;101818.31;10551892;28;20119;-76
2022/07/18 14:38:25;;;;;;;6.30;2.35;;;;;;;38.67;16.48;101804.31;10525799;28;20170;-75
2022/07/18 14:43:25;;;;;;;3.70;1.60;;;;;;;37.82;17.28;101809.81;10526216;28;20373;-75
2022/07/18 14:48:26;;;;;;;5.93;1.88;;;;;;;36.47;21.51;101819.13;10491958;28;20093;-75
2022/07/18 14:53:26;;;;;;;2.50;1.38;;;;;;;36.61;20.54;101813.06;10508173;28;20479;-75
2022/07/18 14:58:27;;;;;;;2.75;2.13;;;;;;;36.72;19.86;101807.09;10495175;28;20036;-75
2022/07/18 15:03:28;;;;;;;4.90;1.85;;;;;;;36.81;19.30;101797.59;10498285;28;20480;-76
2022/07/18 15:08:28;;;;;;;4.90;2.10;;;;;;;36.85;19.19;101797.34;10522690;27;20551;-77
2022/07/18 15:13:29;;;;;;;3.95;1.85;;;;;;;36.14;18.89;101793.41;10522564;28;20068;-75
2022/07/18 15:18:30;;;;;;;5.57;2.83;;;;;;;34.72;22.29;101797.53;10524405;28;20040;-75
2022/07/18 15:23:30;;;;;;;3.13;1.73;;;;;;;34.06;21.73;101788.25;10523218;27;20044;-76
2022/07/18 15:28:32;;;;;;;4.38;1.83;;;;;;;33.65;22.22;101785.16;10503711;28;20126;-75
2022/07/18 15:33:33;;;;;;;4.00;1.83;;;;;;;33.27;22.47;101793.66;10527879;28;20094;-74
2022/07/18 15:38:34;;;;;;;4.63;1.83;;;;;;;32.99;22.91;101780.13;10543199;28;20032;-74
2022/07/18 15:43:35;;;;;;;3.45;1.70;;;;;;;32.85;22.44;101775.09;10534311;28;20126;-76
2022/07/18 15:48:35;;;;;;;7.93;3.50;;;;;;;32.85;23.85;101780.53;10527425;28;20089;-76
2022/07/18 15:53:36;;;;;;;;;;;;;;;32.85;22.77;101769.69;10536786;28;20154;-76
2022/07/18 15:58:36;;;;;;;4.23;1.93;;;;;;;32.71;23.73;101765.59;10537763;28;19928;-76
2022/07/18 16:03:37;;;;;;;17.73;10.05;;;;;;;32.62;22.31;101764.06;10533013;28;20083;-76
2022/07/18 16:08:37;;;;;;;;;;;;;;;32.46;23.13;101755.50;10471307;28;20463;-76
2022/07/18 16:13:38;;;;;;;5.83;1.83;;;;;;;32.19;24.74;101747.25;10523448;28;20407;-76
2022/07/18 16:18:38;;;;;;;;;;;;;;;31.89;30.17;101744.50;10522040;28;20044;-76
2022/07/18 16:23:40;;;;;;;5.40;1.40;;;;;;;31.57;26.80;101742.69;10536657;28;20285;-76
2022/07/18 16:28:41;;;;;;;2.42;1.13;;;;;;;31.49;26.33;101734.75;10563802;28;20066;-76
2022/07/18 16:33:41;;;;;;;4.97;2.10;;;;;;;31.27;24.58;101737.16;10567618;28;20065;-76
2022/07/18 16:38:42;;;;;;;10.90;6.00;;;;;;;31.08;28.98;101734.88;10548964;28;20111;-76
2022/07/18 16:43:43;;;;;;;13.90;11.30;;;;;;;30.82;32.94;101730.09;10569600;28;20034;-78
2022/07/18 16:48:44;;;;;;;11.07;4.82;;;;;;;30.66;31.54;101726.88;10531499;28;20402;-76
2022/07/18 16:53:44;;;;;;;5.25;2.47;;;;;;;30.40;33.22;101723.78;10547160;28;20042;-76
2022/07/18 16:58:45;;;;;;;3.40;1.75;;;;;;;30.39;27.29;101722.00;10565479;28;20044;-76
2022/07/18 17:03:46;;;;;;;2.88;1.73;;;;;;;30.36;38.06;101723.91;10550331;28;20031;-76
2022/07/18 17:08:46;;;;;;;1.95;1.42;;;;;;;30.01;37.52;101715.63;10549218;28;20085;-76
2022/07/18 17:13:47;;;;;;;4.75;1.80;;;;;;;29.71;34.41;101715.28;10532899;28;20034;-75
2022/07/18 17:18:48;;;;;;;4.80;1.75;;;;;;;29.50;40.89;101720.16;10568013;28;20038;-76
2022/07/18 17:23:48;;;;;;;2.67;1.55;;;;;;;29.10;39.37;101707.34;10566145;28;20035;-76
2022/07/18 17:28:49;;;;;;;2.97;1.38;;;;;;;28.98;40.04;101701.25;10548091;28;20032;-76
2022/07/18 17:33:50;;;;;;;2.80;1.48;;;;;;;28.67;43.77;101712.47;10548880;28;20384;-75
2022/07/18 17:38:50;;;;;;;4.55;1.85;;;;;;;28.34;46.55;101708.47;10566419;28;20044;-76
2022/07/18 17:43:51;;;;;;;4.60;1.50;;;;;;;27.93;43.92;101699.97;10542109;27;20139;-76
2022/07/18 17:48:52;;;;;;;5.70;1.77;;;;;;;27.53;45.38;101699.50;10547963;27;20031;-76
2022/07/18 17:53:52;;;;;;;2.37;1.60;;;;;;;27.21;47.17;101691.72;10566867;27;20281;-76
2022/07/18 17:58:53;;;;;;;3.70;1.83;;;;;;;26.93;48.43;101700.00;10527794;27;20040;-76
2022/07/18 18:03:55;;;;;;;3.70;1.50;;;;;;;26.63;47.17;101693.91;10566641;28;20242;-76
2022/07/18 18:08:56;;;;;;;4.82;2.53;;;;;;;26.39;47.71;101683.28;10545756;28;20498;-77
2022/07/18 18:13:56;;;;;;;3.77;1.70;;;;;;;26.11;48.40;101685.22;10566350;28;20165;-76
2022/07/18 18:18:57;;;;;;;3.60;1.73;;;;;;;25.93;49.31;101694.19;10530448;28;20640;-76
2022/07/18 18:23:57;;;;;;;4.77;2.47;;;;;;;25.74;48.33;101688.00;10545094;28;20081;-76
2022/07/18 18:28:58;;;;;;;4.37;2.17;;;;;;;25.47;48.48;101690.72;10566031;28;20118;-76
2022/07/18 18:33:59;;;;;;;3.53;1.50;;;;;;;25.21;49.91;101699.66;10549884;28;20059;-76
2022/07/18 18:38:59;;;;;;;4.57;1.87;;;;;;;25.05;51.69;101693.41;10546659;28;20114;-77
2022/07/18 18:44:00;;;;;;;4.27;2.23;;;;;;;24.77;49.83;101700.50;10547631;28;20119;-76
2022/07/18 18:49:00;;;;;;;2.83;1.37;;;;;;;24.51;50.26;101689.72;10565665;28;20074;-75
2022/07/18 18:54:01;;;;;;;3.77;2.40;;;;;;;24.21;50.22;101692.28;10563497;28;20189;-75
2022/07/18 18:59:01;;;;;;;4.67;1.53;;;;;;;23.90;50.18;101689.44;10564894;28;20048;-75
2022/07/18 19:04:03;;;;;;;4.73;1.83;;;;;;;23.63;51.15;101693.72;10533342;27;20500;-75
2022/07/18 19:09:05;;;;;;;6.47;3.00;;;;;;;23.36;52.82;101681.97;10573219;27;20043;-74
2022/07/18 19:14:05;;;;;;;2.53;1.60;;;;;;;23.09;53.01;101688.84;10554689;27;20479;-76
2022/07/18 19:19:07;;;;;;;4.17;1.83;;;;;;;22.88;53.24;101685.09;10553840;27;20103;-76
2022/07/18 19:24:08;;;;;;;4.40;1.80;;;;;;;22.67;54.19;101680.47;10537879;27;20472;-75
2022/07/18 19:29:08;;;;;;;8.53;4.63;;;;;;;22.37;54.41;101678.31;10511133;28;20044;-77
2022/07/18 19:34:09;;;;;;;6.93;2.77;;;;;;;22.13;54.39;101678.03;10512298;28;21106;-76
2022/07/18 19:39:09;;;;;;;5.13;3.17;;;;;;;21.97;54.51;101684.06;10529039;28;20111;-76
2022/07/18 19:44:10;;;;;;;8.03;3.67;;;;;;;21.72;54.72;101683.72;10511558;28;20040;-76
2022/07/18 19:49:11;;;;;;;8.50;2.93;;;;;;;21.46;54.65;101683.28;10512312;28;20063;-76
2022/07/18 19:54:11;;;;;;;3.70;2.30;;;;;;;21.27;55.08;101690.97;10527475;28;20309;-76
2022/07/18 19:59:12;;;;;;;5.32;4.03;;;;;;;21.01;57.33;101693.19;10494921;28;20093;-76
2022/07/18 20:04:13;;;;;;;6.10;3.45;;;;;;;20.74;58.59;101705.97;10529826;28;20549;-76
2022/07/18 20:09:14;;;;;;;8.57;3.25;;;;;;;20.53;57.17;101698.50;10494377;28;20037;-76
2022/07/18 20:14:14;;;;;;;6.10;2.97;;;;;;;20.37;57.14;101700.84;10512430;28;20039;-76
2022/07/18 20:19:15;;;;;;;8.07;2.95;;;;;;;20.20;58.89;101707.56;10529199;28;20284;-76
2022/07/18 20:24:15;;;;;;;6.72;2.70;;;;;;;20.02;60.50;101713.38;10511568;28;20109;-75
2022/07/18 20:29:16;;;;;;;10.77;3.45;;;;;;;20.02;64.64;101708.97;10510518;28;20039;-76
2022/07/18 20:34:16;;;;;;;7.03;3.35;;;;;;;19.86;64.00;101706.81;10511538;28;20032;-76
2022/07/18 20:39:17;;;;;;;15.35;3.45;;;;;;;19.64;65.19;101695.69;10503414;28;20136;-77
2022/07/18 20:44:18;;;;;;;7.47;3.60;;;;;;;19.53;64.57;101711.34;10468480;28;20119;-77
2022/07/18 20:49:19;;;;;;;8.30;3.90;;;;;;;19.42;64.71;101710.19;10502666;28;20439;-77
2022/07/18 20:54:19;;;;;;;7.13;3.38;;;;;;;19.34;66.53;101707.34;10468935;28;20563;-77
2022/07/18 20:59:20;;;;;;;5.57;2.70;;;;;;;19.18;66.63;101701.66;10451698;28;20041;-76
2022/07/18 21:04:20;;;;;;;7.60;3.67;;;;;;;19.13;67.73;101707.69;10519367;28;20387;-77
2022/07/18 21:09:21;;;;;;;7.63;3.67;;;;;;;19.03;68.95;101699.50;10523815;28;20458;-77
2022/07/18 21:19:44;;;;;;;5.40;3.20;;;;;;;18.79;68.48;101710.34;10554156;28;20035;-77
2022/07/18 21:24:49;;;;;;;5.40;2.65;;;;;;;18.66;68.82;101706.44;10548982;28;20055;-77
2022/07/18 21:29:50;;;;;;;8.95;3.58;;;;;;;18.52;70.07;101705.16;10538439;28;20044;-77
2022/07/18 21:34:50;;;;;;;6.18;3.22;;;;;;;18.40;70.74;101708.38;10513118;28;20036;-77
2022/07/18 21:39:51;;;;;;;8.05;3.78;;;;;;;18.39;68.97;101707.47;10529481;28;20154;-78
2022/07/18 21:44:55;;;;;;;6.05;3.15;;;;;;;18.38;68.25;101710.97;10545253;28;20857;-77
2022/07/18 21:49:55;;;;;;;8.90;4.72;;;;;;;18.40;67.55;101709.25;10534146;28;20544;-77
2022/07/18 21:54:58;;;;;;;8.52;4.15;;;;;;;18.34;67.92;101706.41;10533248;28;20161;-77
2022/07/18 21:59:59;;;;;;;7.43;3.10;;;;;;;18.24;68.16;101713.22;10544269;28;20032;-77
2022/07/18 22:04:59;;;;;;;9.95;3.88;;;;;;;18.19;67.04;101710.41;10549233;28;20496;-77
2022/07/18 22:10:00;;;;;;;5.45;3.22;;;;;;;18.10;68.10;101709.25;10525330;28;20047;-76
2022/07/18 22:15:00;;;;;;;5.90;3.22;;;;;;;17.93;69.58;101700.75;10508038;28;20122;-76
2022/07/18 22:20:01;;;;;;;7.30;3.95;;;;;;;17.81;71.29;101707.47;10501272;28;20059;-77
2022/07/18 22:25:01;;;;;;;7.20;4.28;;;;;;;17.68;73.44;101700.00;10544972;28;20044;-76
2022/07/18 22:30:03;;;;;;;10.35;3.80;;;;;;;17.58;76.98;101702.34;10508294;28;20032;-77
2022/07/18 22:35:05;;;;;;;8.05;3.53;;;;;;;17.46;76.47;101702.88;10508193;28;20073;-77
2022/07/18 22:40:06;;;;;;;5.95;4.30;;;;;;;17.36;76.41;101698.13;10547821;28;20028;-76
2022/07/18 22:45:07;;;;;;;8.10;3.78;;;;;;;17.21;76.86;101701.13;10532267;28;20027;-76
2022/07/18 22:50:08;;;;;;;6.38;3.88;;;;;;;17.02;77.14;101697.88;10519775;28;20040;-77
2022/07/18 22:55:09;;;;;;;6.07;4.47;;;;;;;16.94;77.73;101703.72;10533110;28;20504;-77
2022/07/18 23:00:10;;;;;;;9.60;5.43;;;;;;;16.81;77.82;101703.28;10543482;28;20251;-77
2022/07/18 23:05:23;;;;;;;7.18;4.68;;;;;;;16.69;78.11;101701.09;10539847;28;20071;-77
2022/07/18 23:10:25;;;;;;;7.35;4.85;;;;;;;16.62;78.69;101692.91;10534082;28;20047;-77
2022/07/18 23:15:26;;;;;;;8.07;3.92;;;;;;;16.61;80.93;101683.19;10514493;28;20028;-76
2022/07/18 23:20:26;;;;;;;12.65;4.85;;;;;;;16.59;83.43;101683.09;10523005;28;20487;-77